Rechercher aéroport 
image banner adimage banner adimage banner ad
image banner ad

6PN5 - Sam's Field

Situé à Bradford, United States

ICAO - 6PN5, IATA -

Données fournies par Airmate  

Information générale

Coordonnées: N41°54'27" W78°37'44"
Élévation : 1540 feet MSL.
Variation magnétique : -10° East
Voir autres Aéroports à Pennsylvania

Données opérationnelles

Special qualification required
Heure actuelle UTC:
Heure actuelle locale:
Météo à : KBFD - Bradford Rgnl ( 12 km )
METAR: KBFD 150653Z AUTO 00000KT 10SM FEW070 12/09 A2988 RMK AO2 SLP110 T01170094
TAF: KBFD 150537Z 1506/1606 29006KT P6SM BKN060 FM151300 32010G20KT P6SM VCSH BKN035 FM160100 33007KT P6SM SCT030
Voir NOTAMs / SUP AIP / TFR affectant cet aéroport [VIEW]
Fréquences de communication: [VIEW]

Pistes:

Identifiant RWYQFULongueur (ft)Largeur (ft)SurfaceLDA (ft)
091300100GRASS
271300100GRASS

Coordonnées de l'aéroport

Adresse: Bradford United States

Vue satellite de 6PN5